sensor_id;sensor_type;location;lat;lon;timestamp;pressure;altitude;pressure_sealevel;temperature;humidity
36354;BME280;22383;51.114;13.666;2023-02-03T00:00:09;67306.81;;;1.04;100.00
36354;BME280;22383;51.114;13.666;2023-02-03T00:02:37;67304.97;;;1.07;100.00
36354;BME280;22383;51.114;13.666;2023-02-03T00:05:05;67308.16;;;1.07;100.00
36354;BME280;22383;51.114;13.666;2023-02-03T00:07:32;67313.19;;;1.12;100.00
36354;BME280;22383;51.114;13.666;2023-02-03T00:10:02;67322.00;;;1.18;100.00
36354;BME280;22383;51.114;13.666;2023-02-03T00:12:30;67323.84;;;1.15;100.00
36354;BME280;22383;51.114;13.666;2023-02-03T00:14:58;67320.88;;;1.17;100.00
36354;BME280;22383;51.114;13.666;2023-02-03T00:17:25;67320.69;;;1.14;100.00
36354;BME280;22383;51.114;13.666;2023-02-03T00:19:53;67320.88;;;1.17;100.00
36354;BME280;22383;51.114;13.666;2023-02-03T00:22:20;67321.78;;;1.15;100.00
36354;BME280;22383;51.114;13.666;2023-02-03T00:24:47;67319.19;;;1.15;100.00
36354;BME280;22383;51.114;13.666;2023-02-03T00:27:14;67315.81;;;1.12;100.00
36354;BME280;22383;51.114;13.666;2023-02-03T00:29:42;67329.88;;;1.25;100.00
36354;BME280;22383;51.114;13.666;2023-02-03T00:32:09;67332.91;;;1.30;100.00
36354;BME280;22383;51.114;13.666;2023-02-03T00:34:36;67336.06;;;1.30;100.00
36354;BME280;22383;51.114;13.666;2023-02-03T00:37:04;67323.69;;;1.19;100.00
36354;BME280;22383;51.114;13.666;2023-02-03T00:39:31;67329.31;;;1.24;100.00
36354;BME280;22383;51.114;13.666;2023-02-03T00:41:58;67318.63;;;1.15;100.00
36354;BME280;22383;51.114;13.666;2023-02-03T00:44:26;67318.06;;;1.14;100.00
36354;BME280;22383;51.114;13.666;2023-02-03T00:46:53;67317.28;;;1.11;100.00
36354;BME280;22383;51.114;13.666;2023-02-03T00:49:22;67317.84;;;1.11;100.00
36354;BME280;22383;51.114;13.666;2023-02-03T00:51:49;67317.50;;;1.13;100.00
36354;BME280;22383;51.114;13.666;2023-02-03T00:54:17;67312.44;;;1.09;100.00
36354;BME280;22383;51.114;13.666;2023-02-03T00:56:44;67325.72;;;1.19;100.00
36354;BME280;22383;51.114;13.666;2023-02-03T00:59:13;67332.69;;;1.27;100.00
36354;BME280;22383;51.114;13.666;2023-02-03T01:01:41;67317.50;;;1.13;100.00
36354;BME280;22383;51.114;13.666;2023-02-03T01:04:08;67327.06;;;1.22;100.00
36354;BME280;22383;51.114;13.666;2023-02-03T01:06:36;67307.94;;;1.05;100.00
36354;BME280;22383;51.114;13.666;2023-02-03T01:09:03;67302.31;;;1.00;100.00
36354;BME280;22383;51.114;13.666;2023-02-03T01:11:32;67298.72;;;0.94;100.00
36354;BME280;22383;51.114;13.666;2023-02-03T01:13:59;67295.94;;;0.91;100.00
36354;BME280;22383;51.114;13.666;2023-02-03T01:16:29;67299.63;;;0.92;100.00
36354;BME280;22383;51.114;13.666;2023-02-03T01:18:57;67293.31;;;0.91;100.00
36354;BME280;22383;51.114;13.666;2023-02-03T01:21:26;67289.94;;;0.88;100.00
36354;BME280;22383;51.114;13.666;2023-02-03T01:23:54;67293.66;;;0.89;100.00
36354;BME280;22383;51.114;13.666;2023-02-03T01:26:23;67293.88;;;0.92;100.00
36354;BME280;22383;51.114;13.666;2023-02-03T01:28:55;67292.97;;;0.93;100.00
36354;BME280;22383;51.114;13.666;2023-02-03T01:31:31;67308.28;;;1.03;100.00
36354;BME280;22383;51.114;13.666;2023-02-03T01:34:08;67304.56;;;1.02;100.00
36354;BME280;22383;51.114;13.666;2023-02-03T01:36:37;67293.88;;;0.92;100.00
36354;BME280;22383;51.114;13.666;2023-02-03T01:39:04;67301.75;;;0.99;100.00
36354;BME280;22383;51.114;13.666;2023-02-03T01:41:34;67307.38;;;1.04;100.00
36354;BME280;22383;51.114;13.666;2023-02-03T01:52:47;67278.34;;;0.80;100.00
36354;BME280;22383;51.114;13.666;2023-02-03T01:55:20;67271.03;;;0.73;100.00
36354;BME280;22383;51.114;13.666;2023-02-03T01:58:02;67284.09;;;0.81;100.00
36354;BME280;22383;51.114;13.666;2023-02-03T02:00:31;67283.53;;;0.80;100.00
36354;BME280;22383;51.114;13.666;2023-02-03T02:03:01;67294.44;;;0.92;100.00
36354;BME280;22383;51.114;13.666;2023-02-03T02:05:35;67277.34;;;0.74;100.00
36354;BME280;22383;51.114;13.666;2023-02-03T02:08:06;67283.19;;;0.82;100.00
36354;BME280;22383;51.114;13.666;2023-02-03T02:10:34;67277.91;;;0.75;100.00
36354;BME280;22383;51.114;13.666;2023-02-03T02:13:02;67292.53;;;0.88;100.00
36354;BME280;22383;51.114;13.666;2023-02-03T02:15:53;67286.78;;;0.88;100.00
36354;BME280;22383;51.114;13.666;2023-02-03T02:23:59;67267.81;;;0.66;100.00
36354;BME280;22383;51.114;13.666;2023-02-03T02:27:11;67260.72;;;0.62;100.00
36354;BME280;22383;51.114;13.666;2023-02-03T02:38:04;67268.00;;;0.68;100.00
36354;BME280;22383;51.114;13.666;2023-02-03T02:40:59;67282.06;;;0.81;100.00
36354;BME280;22383;51.114;13.666;2023-02-03T02:46:09;67282.06;;;0.81;100.00
36354;BME280;22383;51.114;13.666;2023-02-03T02:51:46;67289.59;;;0.90;100.00
36354;BME280;22383;51.114;13.666;2023-02-03T02:54:22;67294.44;;;0.92;100.00
36354;BME280;22383;51.114;13.666;2023-02-03T02:56:54;67302.31;;;1.00;100.00
36354;BME280;22383;51.114;13.666;2023-02-03T02:59:23;67298.94;;;0.97;100.00
36354;BME280;22383;51.114;13.666;2023-02-03T03:01:50;67300.06;;;0.98;100.00
36354;BME280;22383;51.114;13.666;2023-02-03T03:04:22;67312.22;;;1.06;100.00
36354;BME280;22383;51.114;13.666;2023-02-03T03:07:01;67302.31;;;1.00;100.00
36354;BME280;22383;51.114;13.666;2023-02-03T03:09:51;67327.63;;;1.23;100.00
36354;BME280;22383;51.114;13.666;2023-02-03T03:12:23;67342.25;;;1.36;100.00
36354;BME280;22383;51.114;13.666;2023-02-03T03:15:04;67338.88;;;1.33;100.00
36354;BME280;22383;51.114;13.666;2023-02-03T03:17:41;67359.69;;;1.52;100.00
36354;BME280;22383;51.114;13.666;2023-02-03T03:20:16;67376.94;;;1.65;100.00
36354;BME280;22383;51.114;13.666;2023-02-03T03:22:50;67384.81;;;1.73;100.00
36354;BME280;22383;51.114;13.666;2023-02-03T03:25:25;67393.81;;;1.81;100.00
36354;BME280;22383;51.114;13.666;2023-02-03T03:28:02;67406.00;;;1.89;100.00
36354;BME280;22383;51.114;13.666;2023-02-03T03:30:34;67402.13;;;1.93;100.00
36354;BME280;22383;51.114;13.666;2023-02-03T03:33:03;67410.34;;;1.98;100.00
36354;BME280;22383;51.114;13.666;2023-02-03T03:35:57;67422.69;;;2.02;100.00
36354;BME280;22383;51.114;13.666;2023-02-03T03:38:40;67409.78;;;1.98;100.00
36354;BME280;22383;51.114;13.666;2023-02-03T03:41:19;67419.34;;;2.06;100.00
36354;BME280;22383;51.114;13.666;2023-02-03T03:43:49;67430.06;;;2.16;100.00
36354;BME280;22383;51.114;13.666;2023-02-03T03:46:26;67438.50;;;2.24;100.00
36354;BME280;22383;51.114;13.666;2023-02-03T03:48:58;67453.50;;;2.35;100.00
36354;BME280;22383;51.114;13.666;2023-02-03T03:51:32;67458.97;;;2.45;100.00
36354;BME280;22383;51.114;13.666;2023-02-03T03:54:04;67470.59;;;2.53;100.00
36354;BME280;22383;51.114;13.666;2023-02-03T03:56:38;67482.78;;;2.62;100.00
36354;BME280;22383;51.114;13.666;2023-02-03T03:59:08;67496.28;;;2.74;100.00
36354;BME280;22383;51.114;13.666;2023-02-03T04:01:38;67503.25;;;2.83;100.00
36354;BME280;22383;51.114;13.666;2023-02-03T04:04:09;67510.59;;;2.90;100.00
36354;BME280;22383;51.114;13.666;2023-02-03T04:06:38;67519.94;;;2.96;100.00
36354;BME280;22383;51.114;13.666;2023-02-03T04:09:05;67522.41;;;3.00;100.00
36354;BME280;22383;51.114;13.666;2023-02-03T04:11:33;67530.72;;;3.13;100.00
36354;BME280;22383;51.114;13.666;2023-02-03T04:14:19;67534.47;;;3.14;100.00
36354;BME280;22383;51.114;13.666;2023-02-03T04:16:46;67538.59;;;3.20;100.00
36354;BME280;22383;51.114;13.666;2023-02-03T04:19:13;67556.22;;;3.31;100.00
36354;BME280;22383;51.114;13.666;2023-02-03T04:21:41;67559.81;;;3.37;100.00
36354;BME280;22383;51.114;13.666;2023-02-03T04:24:08;67561.66;;;3.34;100.00
36354;BME280;22383;51.114;13.666;2023-02-03T04:26:36;67565.22;;;3.39;100.00
36354;BME280;22383;51.114;13.666;2023-02-03T04:29:03;67566.00;;;3.43;100.00
36354;BME280;22383;51.114;13.666;2023-02-03T04:31:31;67571.09;;;3.47;100.00
36354;BME280;22383;51.114;13.666;2023-02-03T04:33:58;67575.59;;;3.51;100.00
36354;BME280;22383;51.114;13.666;2023-02-03T04:36:25;67580.47;;;3.53;100.00
36354;BME280;22383;51.114;13.666;2023-02-03T04:38:53;67584.41;;;3.57;100.00
36354;BME280;22383;51.114;13.666;2023-02-03T04:41:20;67595.13;;;3.67;100.00
36354;BME280;22383;51.114;13.666;2023-02-03T04:43:48;67593.44;;;3.65;100.00
36354;BME280;22383;51.114;13.666;2023-02-03T04:46:15;67597.00;;;3.71;100.00
36354;BME280;22383;51.114;13.666;2023-02-03T04:48:44;67599.44;;;3.68;100.00
36354;BME280;22383;51.114;13.666;2023-02-03T04:51:11;67603.38;;;3.72;100.00
36354;BME280;22383;51.114;13.666;2023-02-03T04:53:38;67603.00;;;3.74;100.00
36354;BME280;22383;51.114;13.666;2023-02-03T04:56:06;67600.41;;;3.74;100.00
36354;BME280;22383;51.114;13.666;2023-02-03T04:58:35;67608.06;;;3.78;100.00
36354;BME280;22383;51.114;13.666;2023-02-03T05:01:07;67608.06;;;3.78;100.00
36354;BME280;22383;51.114;13.666;2023-02-03T05:03:35;67603.19;;;3.76;100.00
36354;BME280;22383;51.114;13.666;2023-02-03T05:06:03;67612.75;;;3.78;100.00
36354;BME280;22383;51.114;13.666;2023-02-03T05:08:31;67606.78;;;3.82;100.00
36354;BME280;22383;51.114;13.666;2023-02-03T05:11:02;67613.91;;;3.86;100.00
36354;BME280;22383;51.114;13.666;2023-02-03T05:13:31;67618.22;;;3.88;100.00
36354;BME280;22383;51.114;13.666;2023-02-03T05:15:59;67618.97;;;3.91;100.00
36354;BME280;22383;51.114;13.666;2023-02-03T05:18:26;67619.94;;;3.89;100.00
36354;BME280;22383;51.114;13.666;2023-02-03T05:20:54;67615.03;;;3.87;100.00
36354;BME280;22383;51.114;13.666;2023-02-03T05:23:21;67615.78;;;3.83;100.00
36354;BME280;22383;51.114;13.666;2023-02-03T05:25:48;67610.91;;;3.81;100.00
36354;BME280;22383;51.114;13.666;2023-02-03T05:28:16;67613.38;;;3.86;100.00
36354;BME280;22383;51.114;13.666;2023-02-03T05:30:43;67616.53;;;3.86;100.00
36354;BME280;22383;51.114;13.666;2023-02-03T05:33:11;67616.72;;;3.89;100.00
36354;BME280;22383;51.114;13.666;2023-02-03T05:35:38;67618.78;;;3.88;100.00
36354;BME280;22383;51.114;13.666;2023-02-03T05:38:06;67620.13;;;3.92;100.00
36354;BME280;22383;51.114;13.666;2023-02-03T05:40:33;67621.81;;;3.93;100.00
36354;BME280;22383;51.114;13.666;2023-02-03T05:43:19;67632.31;;;4.01;100.00
36354;BME280;22383;51.114;13.666;2023-02-03T05:45:46;67627.81;;;3.96;100.00
36354;BME280;22383;51.114;13.666;2023-02-03T05:48:14;67625.75;;;3.97;100.00
36354;BME280;22383;51.114;13.666;2023-02-03T05:50:41;67628.56;;;4.00;100.00
36354;BME280;22383;51.114;13.666;2023-02-03T05:53:09;67631.41;;;4.02;100.00
36354;BME280;22383;51.114;13.666;2023-02-03T05:55:36;67634.00;;;4.02;100.00
36354;BME280;22383;51.114;13.666;2023-02-03T05:58:04;67636.81;;;4.05;100.00
36354;BME280;22383;51.114;13.666;2023-02-03T06:00:31;67634.78;;;4.05;100.00
36354;BME280;22383;51.114;13.666;2023-02-03T06:03:00;67633.66;;;4.04;100.00
36354;BME280;22383;51.114;13.666;2023-02-03T06:05:33;67637.97;;;4.06;100.00
36354;BME280;22383;51.114;13.666;2023-02-03T06:08:01;67637.41;;;4.05;100.00
36354;BME280;22383;51.114;13.666;2023-02-03T06:10:28;67629.91;;;4.03;100.00
36354;BME280;22383;51.114;13.666;2023-02-03T06:12:56;67644.72;;;4.12;100.00
36354;BME280;22383;51.114;13.666;2023-02-03T06:15:23;67645.84;;;4.13;100.00
36354;BME280;22383;51.114;13.666;2023-02-03T06:17:50;67646.41;;;4.13;100.00
36354;BME280;22383;51.114;13.666;2023-02-03T06:20:19;67647.19;;;4.16;100.00
36354;BME280;22383;51.114;13.666;2023-02-03T06:22:46;67650.00;;;4.19;100.00
36354;BME280;22383;51.114;13.666;2023-02-03T06:25:13;67648.88;;;4.18;100.00
36354;BME280;22383;51.114;13.666;2023-02-03T06:27:41;67647.75;;;4.17;100.00
36354;BME280;22383;51.114;13.666;2023-02-03T06:30:09;67658.44;;;4.20;100.00
36354;BME280;22383;51.114;13.666;2023-02-03T06:32:37;67653.97;;;4.23;100.00
36354;BME280;22383;51.114;13.666;2023-02-03T06:35:05;67661.66;;;4.27;100.00
36354;BME280;22383;51.114;13.666;2023-02-03T06:37:32;67665.03;;;4.30;100.00
36354;BME280;22383;51.114;13.666;2023-02-03T06:40:00;67667.28;;;4.32;100.00
36354;BME280;22383;51.114;13.666;2023-02-03T06:42:27;67669.19;;;4.37;100.00
36354;BME280;22383;51.114;13.666;2023-02-03T06:44:55;67674.25;;;4.41;100.00
36354;BME280;22383;51.114;13.666;2023-02-03T06:47:22;67673.47;;;4.38;100.00
36354;BME280;22383;51.114;13.666;2023-02-03T06:49:50;67669.75;;;4.37;100.00
36354;BME280;22383;51.114;13.666;2023-02-03T06:52:18;67668.06;;;4.35;100.00
36354;BME280;22383;51.114;13.666;2023-02-03T06:54:45;67661.28;;;4.29;100.00
36354;BME280;22383;51.114;13.666;2023-02-03T06:57:13;67670.47;;;4.33;100.00
36354;BME280;22383;51.114;13.666;2023-02-03T06:59:40;67666.56;;;4.37;100.00
36354;BME280;22383;51.114;13.666;2023-02-03T07:02:10;67669.53;;;4.34;100.00
36354;BME280;22383;51.114;13.666;2023-02-03T07:04:37;67665.81;;;4.33;100.00
36354;BME280;22383;51.114;13.666;2023-02-03T07:07:05;67666.72;;;4.32;100.00
36354;BME280;22383;51.114;13.666;2023-02-03T07:09:32;67664.09;;;4.32;100.00
36354;BME280;22383;51.114;13.666;2023-02-03T07:12:00;67660.16;;;4.28;100.00
36354;BME280;22383;51.114;13.666;2023-02-03T07:14:27;67668.06;;;4.35;100.00
36354;BME280;22383;51.114;13.666;2023-02-03T07:16:54;67672.38;;;4.37;100.00
36354;BME280;22383;51.114;13.666;2023-02-03T07:19:22;67671.22;;;4.36;100.00
36354;BME280;22383;51.114;13.666;2023-02-03T07:21:49;67680.25;;;4.44;100.00
36354;BME280;22383;51.114;13.666;2023-02-03T07:24:16;67683.84;;;4.50;100.00
36354;BME280;22383;51.114;13.666;2023-02-03T07:26:44;67683.66;;;4.47;100.00
36354;BME280;22383;51.114;13.666;2023-02-03T07:29:11;67685.91;;;4.49;100.00
36354;BME280;22383;51.114;13.666;2023-02-03T07:31:39;67689.84;;;4.53;100.00
36354;BME280;22383;51.114;13.666;2023-02-03T07:34:06;67696.63;;;4.59;100.00
36354;BME280;22383;51.114;13.666;2023-02-03T07:36:33;67696.81;;;4.62;100.00
36354;BME280;22383;51.114;13.666;2023-02-03T07:39:01;67694.00;;;4.59;100.00
36354;BME280;22383;51.114;13.666;2023-02-03T07:41:28;67693.25;;;4.56;100.00
36354;BME280;22383;51.114;13.666;2023-02-03T07:44:03;67688.34;;;4.54;100.00
36354;BME280;22383;51.114;13.666;2023-02-03T07:46:31;67697.19;;;4.60;100.00
36354;BME280;22383;51.114;13.666;2023-02-03T07:48:58;67694.56;;;4.60;100.00
36354;BME280;22383;51.114;13.666;2023-02-03T07:51:26;67665.72;;;4.52;100.00
36354;BME280;22383;51.114;13.666;2023-02-03T07:53:55;67687.97;;;4.49;100.00
36354;BME280;22383;51.114;13.666;2023-02-03T07:56:22;67681.97;;;4.46;100.00
36354;BME280;22383;51.114;13.666;2023-02-03T07:58:53;67683.06;;;4.47;100.00
36354;BME280;22383;51.114;13.666;2023-02-03T08:01:20;67680.63;;;4.42;100.00
36354;BME280;22383;51.114;13.666;2023-02-03T08:03:48;67671.44;;;4.39;100.00
36354;BME280;22383;51.114;13.666;2023-02-03T08:06:15;67652.19;;;4.40;100.00
36354;BME280;22383;51.114;13.666;2023-02-03T08:08:42;67671.81;;;4.37;100.00
36354;BME280;22383;51.114;13.666;2023-02-03T08:11:10;67668.97;;;4.34;100.00
36354;BME280;22383;51.114;13.666;2023-02-03T08:13:38;67673.28;;;4.35;100.00
36354;BME280;22383;51.114;13.666;2023-02-03T08:16:05;67673.28;;;4.35;100.00
36354;BME280;22383;51.114;13.666;2023-02-03T08:18:33;67671.44;;;4.39;100.00
36354;BME280;22383;51.114;13.666;2023-02-03T08:21:00;67668.06;;;4.35;100.00
36354;BME280;22383;51.114;13.666;2023-02-03T08:23:30;67666.91;;;4.34;100.00
36354;BME280;22383;51.114;13.666;2023-02-03T08:25:57;67670.13;;;4.35;100.00
36354;BME280;22383;51.114;13.666;2023-02-03T08:28:25;67648.78;;;4.37;100.00
36354;BME280;22383;51.114;13.666;2023-02-03T08:30:52;67667.28;;;4.32;100.00
36354;BME280;22383;51.114;13.666;2023-02-03T08:33:20;67640.31;;;4.29;100.00
36354;BME280;22383;51.114;13.666;2023-02-03T08:35:48;67661.28;;;4.29;100.00
36354;BME280;22383;51.114;13.666;2023-02-03T08:38:16;67660.72;;;4.29;100.00
36354;BME280;22383;51.114;13.666;2023-02-03T08:40:43;67659.38;;;4.25;100.00
36354;BME280;22383;51.114;13.666;2023-02-03T08:43:11;67660.13;;;4.21;100.00
36354;BME280;22383;51.114;13.666;2023-02-03T08:45:39;67658.25;;;4.24;100.00
36354;BME280;22383;51.114;13.666;2023-02-03T08:48:07;67654.31;;;4.21;100.00
36354;BME280;22383;51.114;13.666;2023-02-03T08:50:34;67653.75;;;4.20;100.00
36354;BME280;22383;51.114;13.666;2023-02-03T08:53:02;67652.63;;;4.19;100.00
36354;BME280;22383;51.114;13.666;2023-02-03T08:55:29;67647.19;;;4.16;100.00
36354;BME280;22383;51.114;13.666;2023-02-03T08:57:57;67647.41;;;4.19;100.00
36354;BME280;22383;51.114;13.666;2023-02-03T09:00:25;67649.81;;;4.16;100.00
36354;BME280;22383;51.114;13.666;2023-02-03T09:02:53;67647.56;;;4.14;100.00
36354;BME280;22383;51.114;13.666;2023-02-03T09:05:20;67652.41;;;4.16;100.00
36354;BME280;22383;51.114;13.666;2023-02-03T09:07:47;67647.00;;;4.14;100.00
36354;BME280;22383;51.114;13.666;2023-02-03T09:10:15;67650.34;;;4.17;100.00
36354;BME280;22383;51.114;13.666;2023-02-03T09:12:42;67646.63;;;4.16;100.00
36354;BME280;22383;51.114;13.666;2023-02-03T09:15:09;67647.00;;;4.14;100.00
36354;BME280;22383;51.114;13.666;2023-02-03T09:17:37;67649.03;;;4.13;100.00
36354;BME280;22383;51.114;13.666;2023-02-03T09:20:05;67645.84;;;4.13;100.00
36354;BME280;22383;51.114;13.666;2023-02-03T09:22:32;67643.25;;;4.13;100.00
36354;BME280;22383;51.114;13.666;2023-02-03T09:24:59;67644.94;;;4.14;100.00
36354;BME280;22383;51.114;13.666;2023-02-03T09:27:27;67648.09;;;4.15;100.00
36354;BME280;22383;51.114;13.666;2023-02-03T09:29:54;67650.34;;;4.17;100.00
36354;BME280;22383;51.114;13.666;2023-02-03T09:32:24;67649.25;;;4.16;100.00
36354;BME280;22383;51.114;13.666;2023-02-03T09:34:54;67653.19;;;4.20;100.00
36354;BME280;22383;51.114;13.666;2023-02-03T09:37:22;67658.63;;;4.22;100.00
36354;BME280;22383;51.114;13.666;2023-02-03T09:39:49;67653.38;;;4.22;100.00
36354;BME280;22383;51.114;13.666;2023-02-03T09:42:54;67656.00;;;4.22;100.00
36354;BME280;22383;51.114;13.666;2023-02-03T09:45:28;67653.75;;;4.20;100.00
36354;BME280;22383;51.114;13.666;2023-02-03T09:50:49;67651.13;;;4.20;100.00
36354;BME280;22383;51.114;13.666;2023-02-03T09:53:36;67650.56;;;4.20;100.00
36354;BME280;22383;51.114;13.666;2023-02-03T09:56:05;67657.50;;;4.21;100.00
36354;BME280;22383;51.114;13.666;2023-02-03T09:58:33;67657.69;;;4.24;100.00
36354;BME280;22383;51.114;13.666;2023-02-03T10:01:02;67664.47;;;4.30;100.00
36354;BME280;22383;51.114;13.666;2023-02-03T10:03:50;67668.06;;;4.35;100.00
36354;BME280;22383;51.114;13.666;2023-02-03T10:06:38;67676.50;;;4.43;100.00
36354;BME280;22383;51.114;13.666;2023-02-03T10:17:51;67695.50;;;4.58;100.00
36354;BME280;22383;51.114;13.666;2023-02-03T10:20:49;67692.47;;;4.53;100.00
36354;BME280;22383;51.114;13.666;2023-02-03T10:23:35;67687.59;;;4.51;100.00
36354;BME280;22383;51.114;13.666;2023-02-03T10:26:09;67689.50;;;4.55;100.00
36354;BME280;22383;51.114;13.666;2023-02-03T10:28:44;67690.25;;;4.58;100.00
36354;BME280;22383;51.114;13.666;2023-02-03T10:31:18;67694.94;;;4.58;100.00
36354;BME280;22383;51.114;13.666;2023-02-03T10:33:52;67693.25;;;4.56;100.00
36354;BME280;22383;51.114;13.666;2023-02-03T10:36:22;67693.44;;;4.59;100.00
36354;BME280;22383;51.114;13.666;2023-02-03T10:39:18;67699.06;;;4.64;100.00
36354;BME280;22383;51.114;13.666;2023-02-03T10:41:48;67678.66;;;4.64;100.00
36354;BME280;22383;51.114;13.666;2023-02-03T10:44:15;67700.22;;;4.65;100.00
36354;BME280;22383;51.114;13.666;2023-02-03T10:46:43;67710.16;;;4.71;100.00
36354;BME280;22383;51.114;13.666;2023-02-03T10:49:12;67719.19;;;4.80;100.00
36354;BME280;22383;51.114;13.666;2023-02-03T10:51:53;67724.06;;;4.82;100.00
36354;BME280;22383;51.114;13.666;2023-02-03T10:54:33;67732.16;;;4.91;100.00
36354;BME280;22383;51.114;13.666;2023-02-03T10:57:04;67709.13;;;4.92;100.00
36354;BME280;22383;51.114;13.666;2023-02-03T10:59:35;67741.56;;;4.98;100.00
36354;BME280;22383;51.114;13.666;2023-02-03T11:02:09;67744.78;;;5.05;100.00
36354;BME280;22383;51.114;13.666;2023-02-03T11:04:37;67755.88;;;5.13;100.00
36354;BME280;22383;51.114;13.666;2023-02-03T11:07:06;67760.22;;;5.22;100.00
36354;BME280;22383;51.114;13.666;2023-02-03T11:09:49;67760.41;;;5.17;100.00
36354;BME280;22383;51.114;13.666;2023-02-03T11:12:19;67760.97;;;5.18;100.00
36354;BME280;22383;51.114;13.666;2023-02-03T11:14:51;67763.97;;;5.23;100.00
36354;BME280;22383;51.114;13.666;2023-02-03T11:17:24;67767.38;;;5.26;100.00
36354;BME280;22383;51.114;13.666;2023-02-03T11:19:57;67783.88;;;5.36;100.00
36354;BME280;22383;51.114;13.666;2023-02-03T11:22:29;67771.66;;;5.27;100.00
36354;BME280;22383;51.114;13.666;2023-02-03T11:24:58;67756.53;;;5.35;100.00
36354;BME280;22383;51.114;13.666;2023-02-03T11:27:31;67784.09;;;5.39;100.00
36354;BME280;22383;51.114;13.666;2023-02-03T11:30:21;67783.53;;;5.38;100.00
36354;BME280;22383;51.114;13.666;2023-02-03T11:32:50;67780.91;;;5.38;100.00
36354;BME280;22383;51.114;13.666;2023-02-03T11:35:24;67778.09;;;5.36;100.00
36354;BME280;22383;51.114;13.666;2023-02-03T11:37:53;67775.28;;;5.33;100.00
36354;BME280;22383;51.114;13.666;2023-02-03T11:40:31;67774.13;;;5.32;100.00
36354;BME280;22383;51.114;13.666;2023-02-03T11:43:29;67780.53;;;5.33;100.00
36354;BME280;22383;51.114;13.666;2023-02-03T11:46:02;67771.50;;;5.32;100.00
36354;BME280;22383;51.114;13.666;2023-02-03T11:48:30;67771.09;;;5.27;100.00
36354;BME280;22383;51.114;13.666;2023-02-03T11:54:26;67770.56;;;5.26;100.00
36354;BME280;22383;51.114;13.666;2023-02-03T11:59:55;67776.38;;;5.34;100.00
36354;BME280;22383;51.114;13.666;2023-02-03T12:08:23;67803.28;;;5.56;100.00
36354;BME280;22383;51.114;13.666;2023-02-03T12:10:59;67799.53;;;5.55;100.00
36354;BME280;22383;51.114;13.666;2023-02-03T12:19:30;67797.66;;;5.51;100.00
36354;BME280;22383;51.114;13.666;2023-02-03T12:30:29;67800.66;;;5.56;100.00
36354;BME280;22383;51.114;13.666;2023-02-03T12:33:12;67805.91;;;5.56;100.00
36354;BME280;22383;51.114;13.666;2023-02-03T12:35:52;67806.50;;;5.64;100.00
36354;BME280;22383;51.114;13.666;2023-02-03T12:38:33;67810.81;;;5.65;100.00
36354;BME280;22383;51.114;13.666;2023-02-03T12:41:06;67810.28;;;5.65;100.00
36354;BME280;22383;51.114;13.666;2023-02-03T12:43:45;67823.41;;;5.72;100.00
36354;BME280;22383;51.114;13.666;2023-02-03T12:46:20;67822.50;;;5.74;100.00
36354;BME280;22383;51.114;13.666;2023-02-03T13:00:16;67830.78;;;5.79;100.00
36354;BME280;22383;51.114;13.666;2023-02-03T13:05:38;67797.84;;;5.54;100.00
36354;BME280;22383;51.114;13.666;2023-02-03T13:11:23;67775.63;;;5.31;100.00
36354;BME280;22383;51.114;13.666;2023-02-03T13:13:55;67713.00;;;4.74;100.00
36354;BME280;22383;51.114;13.666;2023-02-03T13:16:30;67694.94;;;4.58;100.00
36354;BME280;22383;51.114;13.666;2023-02-03T13:19:04;67678.19;;;4.45;100.00
36354;BME280;22383;51.114;13.666;2023-02-03T13:21:33;67669.38;;;4.39;100.00
36354;BME280;22383;51.114;13.666;2023-02-03T13:24:02;67674.25;;;4.41;100.00
36354;BME280;22383;51.114;13.666;2023-02-03T13:37:54;67720.13;;;4.78;100.00
36354;BME280;22383;51.114;13.666;2023-02-03T13:40:36;67730.47;;;4.90;100.00
36354;BME280;22383;51.114;13.666;2023-02-03T13:43:15;67737.81;;;4.97;100.00
36354;BME280;22383;51.114;13.666;2023-02-03T13:46:04;67737.63;;;5.01;100.00
36354;BME280;22383;51.114;13.666;2023-02-03T13:48:35;67750.03;;;5.05;100.00
36354;BME280;22383;51.114;13.666;2023-02-03T13:53:41;67751.34;;;5.09;100.00
36354;BME280;22383;51.114;13.666;2023-02-03T13:56:22;67746.28;;;5.04;100.00
36354;BME280;22383;51.114;13.666;2023-02-03T14:01:37;67741.41;;;5.02;100.00
36354;BME280;22383;51.114;13.666;2023-02-03T14:04:50;67738.75;;;4.95;100.00
36354;BME280;22383;51.114;13.666;2023-02-03T14:07:02;67741.00;;;4.97;100.00
36354;BME280;22383;51.114;13.666;2023-02-03T14:20:10;67735.75;;;4.97;100.00
36354;BME280;22383;51.114;13.666;2023-02-03T14:25:23;67731.03;;;4.90;100.00
36354;BME280;22383;51.114;13.666;2023-02-03T14:28:02;67728.38;;;4.83;100.00
36354;BME280;22383;51.114;13.666;2023-02-03T14:30:32;67705.50;;;4.72;100.00
36354;BME280;22383;51.114;13.666;2023-02-03T14:33:00;67728.59;;;4.86;100.00
36354;BME280;22383;51.114;13.666;2023-02-03T14:35:32;67717.31;;;4.76;100.00
36354;BME280;22383;51.114;13.666;2023-02-03T14:38:03;67709.03;;;4.70;100.00
36354;BME280;22383;51.114;13.666;2023-02-03T14:40:51;67697.94;;;4.63;100.00
36354;BME280;22383;51.114;13.666;2023-02-03T14:54:52;67693.25;;;4.56;100.00
36354;BME280;22383;51.114;13.666;2023-02-03T15:05:39;67681.41;;;4.45;100.00
36354;BME280;22383;51.114;13.666;2023-02-03T15:13:53;67684.56;;;4.46;100.00
36354;BME280;22383;51.114;13.666;2023-02-03T15:16:22;67673.69;;;4.41;100.00
36354;BME280;22383;51.114;13.666;2023-02-03T15:18:59;67662.03;;;4.32;100.00
36354;BME280;22383;51.114;13.666;2023-02-03T15:21:40;67669.34;;;4.32;100.00
36354;BME280;22383;51.114;13.666;2023-02-03T15:24:16;67657.13;;;4.23;100.00
36354;BME280;22383;51.114;13.666;2023-02-03T15:26:51;67666.72;;;4.32;100.00
36354;BME280;22383;51.114;13.666;2023-02-03T15:29:32;67672.94;;;4.38;100.00